Time;durP1;ratioP1;P1;durP2;ratioP2;P2;SDS_P1;SDS_P2;PMS_P1;PMS_P2;Temp;Humidity;BMP_temperature;BMP_pressure;BME280_temperature;BME280_humidity;BME280_pressure;Samples;Min_cycle;Max_cycle;Signal;HPM_P1;HPM_P2
2022/08/09 00:00:30;;;;;;;4.23;3.10;;;;;;;;;;5053057;28;20410;-49
2022/08/09 00:02:56;;;;;;;3.07;2.83;;;;;;;;;;5053826;28;20416;-49
2022/08/09 00:05:22;;;;;;;3.80;2.90;;;;;;;;;;5053771;28;20379;-50
2022/08/09 00:07:48;;;;;;;5.73;3.17;;;;;;;;;;5053641;28;20420;-48
2022/08/09 00:10:15;;;;;;;3.63;2.70;;;;;;;;;;5052907;28;20462;-48
2022/08/09 00:12:41;;;;;;;3.40;3.10;;;;;;;;;;5053886;28;20414;-49
2022/08/09 00:15:07;;;;;;;3.30;3.10;;;;;;;;;;5053255;28;20427;-48
2022/08/09 00:17:33;;;;;;;3.03;2.80;;;;;;;;;;5053475;28;20428;-48
2022/08/09 00:19:59;;;;;;;4.17;3.50;;;;;;;;;;5053049;28;20402;-49
2022/08/09 00:22:25;;;;;;;3.40;3.10;;;;;;;;;;5053406;28;20414;-49
2022/08/09 00:24:51;;;;;;;3.47;3.20;;;;;;;;;;5053316;28;20437;-49
2022/08/09 00:27:17;;;;;;;3.57;3.10;;;;;;;;;;5053291;28;20411;-49
2022/08/09 00:29:43;;;;;;;5.00;2.90;;;;;;;;;;5052435;28;20867;-49
2022/08/09 00:32:09;;;;;;;3.00;2.80;;;;;;;;;;5053191;28;20403;-49
2022/08/09 00:34:34;;;;;;;4.43;2.90;;;;;;;;;;5053423;28;20462;-50
2022/08/09 00:37:01;;;;;;;3.57;2.97;;;;;;;;;;5053033;28;20410;-48
2022/08/09 00:39:27;;;;;;;4.03;3.00;;;;;;;;;;5053032;28;20382;-50
2022/08/09 00:41:53;;;;;;;5.77;3.20;;;;;;;;;;5052273;28;20439;-48
2022/08/09 00:44:19;;;;;;;5.77;3.30;;;;;;;;;;5061790;28;20404;-48
2022/08/09 00:46:45;;;;;;;5.40;3.50;;;;;;;;;;5072866;28;20427;-48
2022/08/09 00:49:11;;;;;;;4.90;2.93;;;;;;;;;;5071892;28;20446;-49
2022/08/09 00:51:37;;;;;;;3.40;3.10;;;;;;;;;;5072157;28;20406;-49
2022/08/09 00:54:03;;;;;;;3.00;2.70;;;;;;;;;;5072779;28;20933;-49
2022/08/09 00:56:29;;;;;;;3.13;2.83;;;;;;;;;;5072572;28;20507;-49
2022/08/09 00:58:56;;;;;;;5.37;3.43;;;;;;;;;;5072571;28;20380;-49
2022/08/09 01:01:27;;;;;;;3.17;2.87;;;;;;;;;;5071379;28;20864;-49
2022/08/09 01:03:53;;;;;;;6.43;3.67;;;;;;;;;;5071929;28;20954;-49
2022/08/09 01:06:39;;;;;;;3.47;3.20;;;;;;;;;;5072083;28;20433;-49
2022/08/09 01:09:16;;;;;;;3.60;3.30;;;;;;;;;;5071256;28;20540;-49
2022/08/09 01:11:59;;;;;;;4.23;3.80;;;;;;;;;;5051808;28;20898;-48
2022/08/09 01:14:31;;;;;;;4.77;3.20;;;;;;;;;;5052574;28;20775;-49
2022/08/09 01:17:02;;;;;;;3.70;3.40;;;;;;;;;;5052354;28;20422;-48
2022/08/09 01:19:43;;;;;;;3.50;2.87;;;;;;;;;;5052172;28;20400;-49
2022/08/09 01:22:27;;;;;;;3.53;3.00;;;;;;;;;;5052550;28;20874;-49
2022/08/09 01:25:05;;;;;;;3.07;2.77;;;;;;;;;;5052275;28;20475;-48
2022/08/09 01:27:33;;;;;;;3.70;3.37;;;;;;;;;;5052276;28;20393;-49
2022/08/09 01:30:01;;;;;;;4.37;3.17;;;;;;;;;;5051297;28;20464;-49
2022/08/09 01:32:33;;;;;;;5.90;2.90;;;;;;;;;;5052139;28;20373;-49
2022/08/09 01:35:01;;;;;;;4.20;3.40;;;;;;;;;;5052046;28;20743;-49
2022/08/09 01:37:28;;;;;;;3.33;3.07;;;;;;;;;;5051748;28;20397;-49
2022/08/09 01:39:54;;;;;;;5.50;3.50;;;;;;;;;;5051378;28;20770;-49
2022/08/09 01:42:21;;;;;;;5.23;3.67;;;;;;;;;;5051972;28;20426;-49
2022/08/09 01:44:47;;;;;;;5.00;3.20;;;;;;;;;;5051933;28;20430;-49
2022/08/09 01:47:14;;;;;;;3.37;3.17;;;;;;;;;;5051929;28;20481;-49
2022/08/09 01:49:40;;;;;;;3.20;2.90;;;;;;;;;;5051427;28;20432;-49
2022/08/09 01:52:08;;;;;;;5.53;3.07;;;;;;;;;;5051622;28;20457;-50
2022/08/09 01:54:36;;;;;;;6.37;3.50;;;;;;;;;;5052175;28;20740;-49
2022/08/09 01:57:04;;;;;;;3.00;2.80;;;;;;;;;;5051672;28;20465;-49
2022/08/09 01:59:31;;;;;;;3.57;3.03;;;;;;;;;;5052226;28;20386;-49
2022/08/09 02:01:58;;;;;;;4.60;2.80;;;;;;;;;;5051148;28;20459;-49
2022/08/09 02:04:24;;;;;;;4.20;3.37;;;;;;;;;;5051734;28;20406;-49
2022/08/09 02:07:07;;;;;;;3.93;3.43;;;;;;;;;;5051816;28;20453;-49
2022/08/09 02:09:34;;;;;;;6.83;3.43;;;;;;;;;;5051457;28;20416;-49
2022/08/09 02:12:02;;;;;;;5.47;3.03;;;;;;;;;;5051067;28;20718;-50
2022/08/09 02:14:29;;;;;;;4.30;3.90;;;;;;;;;;5051667;28;20742;-49
2022/08/09 02:16:55;;;;;;;3.90;3.00;;;;;;;;;;5051694;28;20421;-50
2022/08/09 02:19:21;;;;;;;3.47;3.17;;;;;;;;;;5052535;28;20496;-49
2022/08/09 02:21:49;;;;;;;3.23;3.03;;;;;;;;;;5050990;28;20386;-49
2022/08/09 02:24:22;;;;;;;3.20;2.90;;;;;;;;;;5051531;28;20387;-49
2022/08/09 02:26:50;;;;;;;4.70;4.30;;;;;;;;;;5051499;28;20399;-49
2022/08/09 02:29:19;;;;;;;4.60;3.20;;;;;;;;;;5051368;28;20424;-49
2022/08/09 02:31:46;;;;;;;3.70;3.27;;;;;;;;;;5050860;28;20383;-49
2022/08/09 02:34:23;;;;;;;5.27;3.50;;;;;;;;;;5051273;28;20407;-49
2022/08/09 02:36:52;;;;;;;3.53;3.20;;;;;;;;;;5051369;28;20414;-49
2022/08/09 02:39:20;;;;;;;3.77;3.37;;;;;;;;;;5051263;28;20403;-49
2022/08/09 02:41:52;;;;;;;8.17;3.57;;;;;;;;;;5050750;28;20460;-49
2022/08/09 02:44:20;;;;;;;3.30;2.90;;;;;;;;;;5051381;28;20372;-49
2022/08/09 02:46:49;;;;;;;3.70;3.37;;;;;;;;;;5051314;28;20499;-49
2022/08/09 02:49:16;;;;;;;3.10;2.90;;;;;;;;;;5051145;28;20952;-49
2022/08/09 02:51:43;;;;;;;3.63;3.33;;;;;;;;;;5050684;28;20859;-49
2022/08/09 02:54:11;;;;;;;7.27;3.27;;;;;;;;;;5051303;28;20401;-49
2022/08/09 02:56:37;;;;;;;4.03;3.73;;;;;;;;;;5051061;28;20955;-49
2022/08/09 02:59:05;;;;;;;3.70;3.40;;;;;;;;;;5051238;28;20389;-49
2022/08/09 03:01:32;;;;;;;3.13;2.73;;;;;;;;;;5050541;28;20376;-49
2022/08/09 03:03:59;;;;;;;4.00;3.70;;;;;;;;;;5050743;28;20528;-49
2022/08/09 03:06:26;;;;;;;4.07;3.50;;;;;;;;;;5051381;28;20421;-49
2022/08/09 03:08:53;;;;;;;3.57;3.27;;;;;;;;;;5051106;28;20453;-49
2022/08/09 03:11:20;;;;;;;3.60;3.30;;;;;;;;;;5049796;28;20395;-49
2022/08/09 03:13:47;;;;;;;5.83;4.00;;;;;;;;;;5054717;28;20406;-49
2022/08/09 03:16:13;;;;;;;3.90;3.27;;;;;;;;;;5054608;28;20417;-50
2022/08/09 03:18:40;;;;;;;3.60;3.30;;;;;;;;;;5054538;28;20401;-49
2022/08/09 03:21:07;;;;;;;7.37;4.00;;;;;;;;;;5054015;28;20879;-49
2022/08/09 03:23:33;;;;;;;3.73;3.43;;;;;;;;;;5054296;28;20406;-49
2022/08/09 03:25:59;;;;;;;7.37;3.00;;;;;;;;;;5054400;28;20703;-49
2022/08/09 03:28:26;;;;;;;4.97;3.23;;;;;;;;;;5054551;28;20376;-49
2022/08/09 03:30:54;;;;;;;3.57;3.37;;;;;;;;;;5054209;28;20435;-49
2022/08/09 03:33:20;;;;;;;5.00;3.60;;;;;;;;;;5053964;28;20385;-49
2022/08/09 03:35:48;;;;;;;5.67;3.23;;;;;;;;;;5054253;28;20462;-49
2022/08/09 03:38:14;;;;;;;3.53;3.20;;;;;;;;;;5054304;28;20459;-49
2022/08/09 03:40:39;;;;;;;3.70;3.00;;;;;;;;;;5053452;28;20448;-49
2022/08/09 03:43:05;;;;;;;5.50;3.13;;;;;;;;;;5054312;28;20409;-49
2022/08/09 03:45:31;;;;;;;4.73;3.80;;;;;;;;;;5054087;28;20490;-49
2022/08/09 03:47:57;;;;;;;5.80;3.77;;;;;;;;;;5054057;28;20431;-49
2022/08/09 03:50:26;;;;;;;4.60;3.37;;;;;;;;;;5053242;28;20956;-49
2022/08/09 03:52:52;;;;;;;5.53;3.40;;;;;;;;;;5054052;28;20466;-49
2022/08/09 03:55:19;;;;;;;4.27;3.70;;;;;;;;;;5053812;28;20372;-49
2022/08/09 03:57:45;;;;;;;5.60;3.67;;;;;;;;;;5053803;28;20446;-49
2022/08/09 04:00:11;;;;;;;6.50;5.20;;;;;;;;;;5053092;28;20429;-49
2022/08/09 04:02:38;;;;;;;4.20;3.90;;;;;;;;;;5053882;28;20489;-49
2022/08/09 04:05:04;;;;;;;4.13;3.73;;;;;;;;;;5053804;28;20405;-49
2022/08/09 04:07:30;;;;;;;5.40;4.00;;;;;;;;;;5053661;28;20922;-49
2022/08/09 04:09:56;;;;;;;4.70;4.20;;;;;;;;;;5052853;28;20445;-49
2022/08/09 04:12:43;;;;;;;4.80;3.90;;;;;;;;;;5053661;28;20484;-49
2022/08/09 04:15:09;;;;;;;4.57;3.80;;;;;;;;;;5053661;28;20386;-49
2022/08/09 04:17:35;;;;;;;6.10;3.70;;;;;;;;;;5053517;28;20975;-49
2022/08/09 04:20:01;;;;;;;4.60;3.70;;;;;;;;;;5052894;28;20440;-49
2022/08/09 04:22:27;;;;;;;3.77;3.43;;;;;;;;;;5053729;28;20801;-49
2022/08/09 04:24:53;;;;;;;4.83;3.30;;;;;;;;;;5053395;28;20453;-49
2022/08/09 04:27:19;;;;;;;4.00;3.70;;;;;;;;;;5053041;28;20956;-49
2022/08/09 04:29:45;;;;;;;4.13;3.80;;;;;;;;;;5052512;28;20953;-49
2022/08/09 04:32:11;;;;;;;5.23;3.90;;;;;;;;;;5053252;28;20819;-49
2022/08/09 04:34:37;;;;;;;4.80;3.90;;;;;;;;;;5053251;28;20401;-49
2022/08/09 04:37:03;;;;;;;17.03;4.53;;;;;;;;;;5053200;28;20794;-49
2022/08/09 04:39:29;;;;;;;7.40;3.90;;;;;;;;;;5052961;28;20432;-49
2022/08/09 04:41:55;;;;;;;4.03;3.20;;;;;;;;;;5052450;28;20409;-49
2022/08/09 04:44:21;;;;;;;7.50;4.93;;;;;;;;;;5053201;28;20377;-49
2022/08/09 04:46:47;;;;;;;10.23;4.30;;;;;;;;;;5053073;28;20404;-49
2022/08/09 04:49:13;;;;;;;6.73;4.47;;;;;;;;;;5052811;28;20941;-49
2022/08/09 04:51:39;;;;;;;5.77;4.17;;;;;;;;;;5052175;28;20455;-49
2022/08/09 04:54:05;;;;;;;4.87;4.43;;;;;;;;;;5052807;28;20480;-49
2022/08/09 04:56:31;;;;;;;4.47;4.07;;;;;;;;;;5052514;28;20540;-49
2022/08/09 04:58:57;;;;;;;4.77;4.30;;;;;;;;;;5052774;28;20391;-49
2022/08/09 05:01:23;;;;;;;5.20;4.70;;;;;;;;;;5052056;28;20401;-49
2022/08/09 05:03:49;;;;;;;5.50;4.20;;;;;;;;;;5052667;28;20372;-49
2022/08/09 05:06:15;;;;;;;4.00;3.70;;;;;;;;;;5052555;28;20986;-49
2022/08/09 05:08:41;;;;;;;5.40;4.20;;;;;;;;;;5052373;28;20383;-49
2022/08/09 05:11:07;;;;;;;11.90;3.87;;;;;;;;;;5051802;28;20405;-49
2022/08/09 05:13:34;;;;;;;4.60;4.20;;;;;;;;;;5052532;28;20784;-49
2022/08/09 05:16:00;;;;;;;7.30;4.80;;;;;;;;;;5052447;28;20395;-49
2022/08/09 05:18:28;;;;;;;8.30;4.97;;;;;;;;;;5052399;28;20425;-49
2022/08/09 05:20:55;;;;;;;4.40;4.00;;;;;;;;;;5051683;28;20458;-50
2022/08/09 05:23:21;;;;;;;10.50;6.10;;;;;;;;;;5052506;28;20437;-49
2022/08/09 05:25:47;;;;;;;6.07;5.37;;;;;;;;;;5058133;28;20397;-49
2022/08/09 05:28:13;;;;;;;10.73;5.33;;;;;;;;;;5072229;28;20988;-49
2022/08/09 05:30:39;;;;;;;5.73;4.90;;;;;;;;;;5071691;28;20539;-49
2022/08/09 05:33:05;;;;;;;6.93;5.10;;;;;;;;;;5072223;28;20881;-49
2022/08/09 05:35:31;;;;;;;6.70;4.33;;;;;;;;;;5071701;28;20382;-49
2022/08/09 05:37:57;;;;;;;6.60;5.90;;;;;;;;;;5071974;28;20395;-49
2022/08/09 05:40:25;;;;;;;9.10;5.20;;;;;;;;;;5071555;28;20905;-49
2022/08/09 05:42:51;;;;;;;5.67;5.17;;;;;;;;;;5072052;28;20371;-49
2022/08/09 05:45:17;;;;;;;6.63;5.20;;;;;;;;;;5071986;28;20457;-49
2022/08/09 05:47:43;;;;;;;6.30;4.87;;;;;;;;;;5072221;28;20396;-49
2022/08/09 05:50:09;;;;;;;4.90;4.40;;;;;;;;;;5071212;28;20540;-49
2022/08/09 05:52:35;;;;;;;7.27;5.17;;;;;;;;;;5059964;28;20401;-49
2022/08/09 05:55:01;;;;;;;9.10;4.80;;;;;;;;;;5051874;28;20879;-49
2022/08/09 05:57:27;;;;;;;8.20;7.03;;;;;;;;;;5051704;28;20528;-49
2022/08/09 05:59:53;;;;;;;5.23;4.33;;;;;;;;;;5051169;28;20414;-49
2022/08/09 06:02:19;;;;;;;7.50;5.80;;;;;;;;;;5051745;28;20412;-49
2022/08/09 06:04:45;;;;;;;5.90;5.30;;;;;;;;;;5051786;28;20407;-49
2022/08/09 06:07:11;;;;;;;5.87;5.37;;;;;;;;;;5051611;28;20479;-49
2022/08/09 06:09:37;;;;;;;9.37;5.20;;;;;;;;;;5050410;28;20521;-49
2022/08/09 06:12:03;;;;;;;9.67;5.13;;;;;;;;;;5051212;28;20976;-49
2022/08/09 06:14:29;;;;;;;8.23;5.40;;;;;;;;;;5051676;28;20381;-49
2022/08/09 06:16:55;;;;;;;6.83;4.70;;;;;;;;;;5051619;28;20423;-49
2022/08/09 06:19:21;;;;;;;6.40;4.50;;;;;;;;;;5051558;28;20952;-49
2022/08/09 06:21:47;;;;;;;10.63;5.70;;;;;;;;;;5060998;28;20486;-49
2022/08/09 06:24:13;;;;;;;6.33;5.10;;;;;;;;;;5071621;28;20376;-50
2022/08/09 06:26:40;;;;;;;6.80;6.10;;;;;;;;;;5071561;28;20893;-50
2022/08/09 06:29:07;;;;;;;6.37;5.17;;;;;;;;;;5071450;28;20823;-49
2022/08/09 06:31:34;;;;;;;7.30;4.67;;;;;;;;;;5070893;28;20410;-49
2022/08/09 06:34:00;;;;;;;10.30;5.60;;;;;;;;;;5071607;28;20907;-49
2022/08/09 06:36:26;;;;;;;5.23;4.70;;;;;;;;;;5071335;28;20417;-49
2022/08/09 06:38:52;;;;;;;8.87;5.60;;;;;;;;;;5071419;28;20414;-49
2022/08/09 06:41:18;;;;;;;5.30;4.80;;;;;;;;;;5070763;28;20386;-49
2022/08/09 06:43:45;;;;;;;4.87;4.47;;;;;;;;;;5071426;28;20490;-50
2022/08/09 06:46:11;;;;;;;7.37;4.87;;;;;;;;;;5056236;28;20449;-49
2022/08/09 06:48:37;;;;;;;5.13;4.10;;;;;;;;;;5055089;28;20412;-49
2022/08/09 06:51:04;;;;;;;5.00;4.20;;;;;;;;;;5054389;28;20420;-49
2022/08/09 06:53:30;;;;;;;5.33;4.83;;;;;;;;;;5055141;28;20415;-49
2022/08/09 06:55:58;;;;;;;5.50;5.00;;;;;;;;;;5055097;28;20412;-49
2022/08/09 06:58:24;;;;;;;4.60;4.20;;;;;;;;;;5054966;28;20415;-49
2022/08/09 07:00:49;;;;;;;5.53;4.00;;;;;;;;;;5054320;28;20454;-49
2022/08/09 07:03:15;;;;;;;6.23;4.63;;;;;;;;;;5055004;28;20383;-49
2022/08/09 07:05:41;;;;;;;8.87;6.00;;;;;;;;;;5054754;28;20499;-49
2022/08/09 07:08:07;;;;;;;4.37;3.97;;;;;;;;;;5055078;28;20466;-49
2022/08/09 07:10:33;;;;;;;4.70;3.67;;;;;;;;;;5054018;28;20455;-49
2022/08/09 07:13:00;;;;;;;12.83;4.93;;;;;;;;;;5054532;28;20429;-49
2022/08/09 07:15:27;;;;;;;7.20;6.00;;;;;;;;;;5054479;28;20433;-49
2022/08/09 07:17:52;;;;;;;7.20;6.13;;;;;;;;;;5054670;28;20418;-49
2022/08/09 07:20:19;;;;;;;6.40;5.53;;;;;;;;;;5053825;28;20433;-49
2022/08/09 07:22:45;;;;;;;8.23;4.33;;;;;;;;;;5054625;28;20430;-49
2022/08/09 07:25:11;;;;;;;6.23;5.67;;;;;;;;;;5054604;28;20821;-49
2022/08/09 07:27:38;;;;;;;8.43;5.60;;;;;;;;;;5054446;28;20483;-48
2022/08/09 07:30:05;;;;;;;5.87;4.93;;;;;;;;;;5053656;28;20449;-49
2022/08/09 07:32:31;;;;;;;10.20;6.90;;;;;;;;;;5054435;28;20395;-48
2022/08/09 07:34:57;;;;;;;10.50;5.47;;;;;;;;;;5054303;28;20398;-49
2022/08/09 07:37:23;;;;;;;6.97;5.40;;;;;;;;;;5054439;28;20432;-48
2022/08/09 07:39:49;;;;;;;8.27;6.33;;;;;;;;;;5053576;28;20411;-49
2022/08/09 07:42:15;;;;;;;7.83;5.50;;;;;;;;;;5053910;28;20429;-49
2022/08/09 07:44:41;;;;;;;4.43;3.73;;;;;;;;;;5072121;28;20523;-49
2022/08/09 07:47:07;;;;;;;5.83;4.70;;;;;;;;;;5074080;28;20418;-49
2022/08/09 07:49:33;;;;;;;7.70;5.13;;;;;;;;;;5073765;28;20451;-49
2022/08/09 07:51:59;;;;;;;6.37;4.80;;;;;;;;;;5073535;28;20406;-49
2022/08/09 07:54:29;;;;;;;4.83;4.43;;;;;;;;;;5074162;28;20404;-49
2022/08/09 07:56:55;;;;;;;4.70;3.87;;;;;;;;;;5073569;28;20431;-49
2022/08/09 07:59:21;;;;;;;4.30;3.50;;;;;;;;;;5074153;28;20400;-48
2022/08/09 08:01:47;;;;;;;9.93;4.20;;;;;;;;;;5073113;28;20407;-48
2022/08/09 08:04:13;;;;;;;6.53;3.37;;;;;;;;;;5072401;28;20398;-49
2022/08/09 08:06:39;;;;;;;5.13;4.73;;;;;;;;;;5065957;28;20461;-48
2022/08/09 08:09:05;;;;;;;4.70;3.50;;;;;;;;;;5054362;28;20465;-48
2022/08/09 08:11:31;;;;;;;3.73;3.40;;;;;;;;;;5056463;28;20494;-48
2022/08/09 08:13:57;;;;;;;7.47;3.40;;;;;;;;;;5056524;28;20444;-48
2022/08/09 08:16:23;;;;;;;4.30;3.60;;;;;;;;;;5057929;28;20900;-48
2022/08/09 08:18:49;;;;;;;4.30;3.90;;;;;;;;;;5058052;28;20410;-48
2022/08/09 08:21:15;;;;;;;8.07;3.63;;;;;;;;;;5056158;28;20405;-48
2022/08/09 08:23:41;;;;;;;9.30;3.80;;;;;;;;;;5054031;28;20877;-49
2022/08/09 08:26:07;;;;;;;6.33;3.80;;;;;;;;;;5055902;28;20421;-48
2022/08/09 08:28:33;;;;;;;7.97;3.33;;;;;;;;;;5055269;28;20405;-49
2022/08/09 08:31:03;;;;;;;6.20;3.00;;;;;;;;;;5052395;28;20452;-48
2022/08/09 08:33:29;;;;;;;4.30;2.73;;;;;;;;;;5053330;28;20492;-48
2022/08/09 08:35:55;;;;;;;5.07;3.27;;;;;;;;;;5053159;28;20984;-48
2022/08/09 08:38:21;;;;;;;6.63;3.53;;;;;;;;;;5052989;28;20433;-48
2022/08/09 08:40:47;;;;;;;3.57;3.37;;;;;;;;;;5052260;28;20466;-49
2022/08/09 08:43:13;;;;;;;5.50;3.10;;;;;;;;;;5052775;28;20412;-49
2022/08/09 08:45:49;;;;;;;2.83;2.63;;;;;;;;;;5053173;28;20411;-48
2022/08/09 08:48:16;;;;;;;6.13;3.10;;;;;;;;;;5052923;28;20411;-48
2022/08/09 08:50:42;;;;;;;4.53;3.20;;;;;;;;;;5052070;28;20453;-48
2022/08/09 08:53:08;;;;;;;3.33;2.30;;;;;;;;;;5052866;28;20734;-48
2022/08/09 08:55:35;;;;;;;2.43;2.23;;;;;;;;;;5052498;28;20405;-48
2022/08/09 08:58:01;;;;;;;3.03;2.83;;;;;;;;;;5052619;28;20493;-48
2022/08/09 09:00:30;;;;;;;7.27;2.70;;;;;;;;;;5051992;28;20428;-48
2022/08/09 09:02:57;;;;;;;2.77;2.40;;;;;;;;;;5052664;28;20405;-49
2022/08/09 09:05:24;;;;;;;3.30;3.00;;;;;;;;;;5053004;28;21398;-48
2022/08/09 09:07:51;;;;;;;2.87;2.57;;;;;;;;;;5052486;28;20425;-48
2022/08/09 09:10:18;;;;;;;2.70;2.50;;;;;;;;;;5051233;28;20945;-48
2022/08/09 09:12:44;;;;;;;2.63;2.30;;;;;;;;;;5052648;28;20416;-48
2022/08/09 09:15:10;;;;;;;3.00;2.77;;;;;;;;;;5052512;28;20404;-48
2022/08/09 09:17:37;;;;;;;3.00;2.70;;;;;;;;;;5052402;28;20453;-49
2022/08/09 09:20:10;;;;;;;3.23;2.03;;;;;;;;;;5051646;28;20441;-49
2022/08/09 09:22:52;;;;;;;3.10;2.73;;;;;;;;;;5052330;28;20397;-48
2022/08/09 09:25:37;;;;;;;4.10;3.00;;;;;;;;;;5052442;28;20463;-48
2022/08/09 09:28:05;;;;;;;3.10;2.60;;;;;;;;;;5052162;28;20417;-48
2022/08/09 09:30:31;;;;;;;3.13;2.80;;;;;;;;;;5051363;28;21008;-49
2022/08/09 09:33:08;;;;;;;4.20;2.57;;;;;;;;;;5052124;28;20440;-48
2022/08/09 09:35:34;;;;;;;3.23;2.20;;;;;;;;;;5052184;28;21004;-48
2022/08/09 09:38:00;;;;;;;2.60;2.40;;;;;;;;;;5065677;28;20449;-48
2022/08/09 09:40:42;;;;;;;2.70;2.07;;;;;;;;;;5071262;28;20405;-48
2022/08/09 09:43:08;;;;;;;5.47;2.50;;;;;;;;;;5072039;28;20458;-48
2022/08/09 09:45:46;;;;;;;2.63;2.40;;;;;;;;;;5071940;28;20400;-48
2022/08/09 09:48:12;;;;;;;2.27;1.97;;;;;;;;;;5071962;28;20412;-48
2022/08/09 09:50:39;;;;;;;6.60;3.00;;;;;;;;;;5071350;28;20464;-48
2022/08/09 09:53:05;;;;;;;2.30;2.10;;;;;;;;;;5071924;28;20408;-49
2022/08/09 09:55:31;;;;;;;2.07;1.90;;;;;;;;;;5071982;28;20415;-48
2022/08/09 09:58:06;;;;;;;2.40;2.20;;;;;;;;;;5071662;28;20440;-48
2022/08/09 10:00:32;;;;;;;4.20;2.33;;;;;;;;;;5071104;28;20741;-49
2022/08/09 10:02:58;;;;;;;3.50;3.23;;;;;;;;;;5071893;28;20922;-49
2022/08/09 10:05:25;;;;;;;3.53;3.00;;;;;;;;;;5056000;28;20429;-49
2022/08/09 10:08:02;;;;;;;4.40;2.53;;;;;;;;;;5051095;28;20817;-50
2022/08/09 10:10:29;;;;;;;2.40;2.20;;;;;;;;;;5050888;28;20449;-49
2022/08/09 10:12:55;;;;;;;5.83;2.50;;;;;;;;;;5051630;28;20415;-49
2022/08/09 10:15:21;;;;;;;2.67;2.13;;;;;;;;;;5051854;28;20772;-48
2022/08/09 10:17:50;;;;;;;5.63;2.80;;;;;;;;;;5051825;28;20582;-48
2022/08/09 10:20:19;;;;;;;6.40;3.93;;;;;;;;;;5051254;28;20401;-49
2022/08/09 10:22:45;;;;;;;2.57;2.37;;;;;;;;;;5057740;28;20841;-48
2022/08/09 10:25:13;;;;;;;2.90;2.70;;;;;;;;;;5069728;28;20440;-49
2022/08/09 10:27:39;;;;;;;2.90;2.70;;;;;;;;;;5056245;28;20417;-49
2022/08/09 10:30:06;;;;;;;2.60;2.40;;;;;;;;;;5054761;28;20467;-49
2022/08/09 10:32:33;;;;;;;4.27;2.80;;;;;;;;;;5055428;28;20455;-49
2022/08/09 10:34:59;;;;;;;5.27;2.50;;;;;;;;;;5055043;28;20425;-49
2022/08/09 10:37:26;;;;;;;2.83;2.63;;;;;;;;;;5055281;28;20421;-49
2022/08/09 10:39:52;;;;;;;3.50;2.60;;;;;;;;;;5054436;28;20984;-49
2022/08/09 10:42:18;;;;;;;6.17;3.20;;;;;;;;;;5055295;28;20405;-49
2022/08/09 10:44:46;;;;;;;2.40;2.20;;;;;;;;;;5055258;28;20479;-50
2022/08/09 10:47:36;;;;;;;1.97;1.77;;;;;;;;;;5055135;28;20425;-49
2022/08/09 10:50:02;;;;;;;2.80;2.60;;;;;;;;;;5049274;28;20461;-49
2022/08/09 10:52:34;;;;;;;2.27;2.07;;;;;;;;;;5055092;28;20774;-49
2022/08/09 10:55:18;;;;;;;2.60;2.40;;;;;;;;;;5055047;28;20809;-49
2022/08/09 10:57:44;;;;;;;2.57;2.37;;;;;;;;;;5054849;28;20440;-49
2022/08/09 11:00:30;;;;;;;4.40;2.67;;;;;;;;;;5054211;28;20563;-49
2022/08/09 11:02:56;;;;;;;3.00;2.53;;;;;;;;;;5054892;28;20902;-49
2022/08/09 11:05:23;;;;;;;3.03;2.67;;;;;;;;;;5070527;28;20541;-49
2022/08/09 11:07:49;;;;;;;3.90;2.53;;;;;;;;;;5075325;28;20477;-49
2022/08/09 11:10:16;;;;;;;2.50;2.30;;;;;;;;;;5074061;28;20517;-49
2022/08/09 11:13:02;;;;;;;2.40;2.20;;;;;;;;;;5074653;28;20412;-49
2022/08/09 11:15:28;;;;;;;3.90;2.30;;;;;;;;;;5075064;28;20411;-50
2022/08/09 11:17:55;;;;;;;10.50;2.53;;;;;;;;;;5074598;28;20412;-50
2022/08/09 11:20:38;;;;;;;1.93;1.83;;;;;;;;;;5073856;28;20417;-50
2022/08/09 11:23:04;;;;;;;2.87;2.67;;;;;;;;;;5074548;28;20416;-50
2022/08/09 11:25:30;;;;;;;6.40;2.50;;;;;;;;;;5074436;28;20463;-50
2022/08/09 11:27:59;;;;;;;2.83;2.50;;;;;;;;;;5076595;28;20841;-50
2022/08/09 11:30:29;;;;;;;4.03;2.70;;;;;;;;;;5076386;28;20455;-50
2022/08/09 11:33:07;;;;;;;2.60;2.03;;;;;;;;;;5075732;28;20396;-50
2022/08/09 11:35:40;;;;;;;2.47;2.30;;;;;;;;;;5059613;28;20425;-50
2022/08/09 11:38:25;;;;;;;4.90;2.37;;;;;;;;;;5057101;28;20401;-49
2022/08/09 11:40:52;;;;;;;2.57;2.40;;;;;;;;;;5055954;28;20504;-52
2022/08/09 11:43:27;;;;;;;2.63;2.37;;;;;;;;;;5057017;28;20792;-50
2022/08/09 11:45:54;;;;;;;2.90;2.57;;;;;;;;;;5057896;28;20404;-50
2022/08/09 11:48:23;;;;;;;2.93;2.60;;;;;;;;;;5055950;28;20405;-50
2022/08/09 11:51:03;;;;;;;2.80;2.37;;;;;;;;;;5056742;28;20453;-49
2022/08/09 11:53:36;;;;;;;2.90;2.23;;;;;;;;;;5057012;28;20431;-50
2022/08/09 11:56:14;;;;;;;2.70;2.50;;;;;;;;;;5055567;28;20444;-50
2022/08/09 11:58:59;;;;;;;3.73;1.97;;;;;;;;;;5054131;28;20495;-50
2022/08/09 12:01:33;;;;;;;2.70;2.50;;;;;;;;;;5053198;28;20433;-50
2022/08/09 12:04:03;;;;;;;2.30;2.20;;;;;;;;;;5059823;28;20427;-50
2022/08/09 12:06:31;;;;;;;2.47;2.27;;;;;;;;;;5073719;28;20806;-50
2022/08/09 12:08:57;;;;;;;2.90;2.53;;;;;;;;;;5070959;28;20621;-50
2022/08/09 12:11:24;;;;;;;2.70;2.50;;;;;;;;;;5053010;28;20440;-50
2022/08/09 12:13:52;;;;;;;2.57;2.37;;;;;;;;;;5053848;28;20397;-50
2022/08/09 12:16:27;;;;;;;2.00;1.90;;;;;;;;;;5053537;28;20449;-50
2022/08/09 12:18:53;;;;;;;2.30;2.20;;;;;;;;;;5052176;28;20413;-50
2022/08/09 12:21:27;;;;;;;2.77;2.30;;;;;;;;;;5052814;28;20425;-50
2022/08/09 12:23:53;;;;;;;2.53;2.33;;;;;;;;;;5053366;28;20531;-50
2022/08/09 12:26:19;;;;;;;3.10;2.80;;;;;;;;;;5053264;28;20512;-50
2022/08/09 12:28:49;;;;;;;4.50;2.53;;;;;;;;;;5053244;28;20400;-50
2022/08/09 12:31:22;;;;;;;2.47;2.27;;;;;;;;;;5052471;28;20457;-50
2022/08/09 12:33:49;;;;;;;4.07;2.60;;;;;;;;;;5052047;28;20444;-50
2022/08/09 12:36:15;;;;;;;2.40;2.20;;;;;;;;;;5056465;28;20737;-50
2022/08/09 12:38:41;;;;;;;5.03;2.67;;;;;;;;;;5062709;28;20791;-50
2022/08/09 12:41:07;;;;;;;3.03;2.40;;;;;;;;;;5061078;28;20726;-51
2022/08/09 12:43:33;;;;;;;3.40;2.27;;;;;;;;;;5053102;28;20401;-50
2022/08/09 12:46:00;;;;;;;6.97;2.20;;;;;;;;;;5052718;28;20402;-50
2022/08/09 12:48:27;;;;;;;4.87;2.20;;;;;;;;;;5053298;28;20762;-50
2022/08/09 12:50:53;;;;;;;4.10;2.33;;;;;;;;;;5051858;28;20460;-50
2022/08/09 12:53:29;;;;;;;13.30;3.20;;;;;;;;;;5052771;28;20742;-50
2022/08/09 12:56:09;;;;;;;2.90;2.67;;;;;;;;;;5052669;28;20927;-50
2022/08/09 12:58:36;;;;;;;3.07;2.40;;;;;;;;;;5058743;28;20428;-51
2022/08/09 13:01:03;;;;;;;2.53;2.33;;;;;;;;;;5070909;28;20408;-50
2022/08/09 13:03:31;;;;;;;3.17;2.27;;;;;;;;;;5071477;28;20405;-50
2022/08/09 13:05:57;;;;;;;2.43;2.30;;;;;;;;;;5055875;28;20602;-50
2022/08/09 13:08:23;;;;;;;2.03;1.93;;;;;;;;;;5051805;28;20749;-50
2022/08/09 13:10:57;;;;;;;2.63;2.23;;;;;;;;;;5051280;28;20445;-50
2022/08/09 13:13:29;;;;;;;3.53;2.00;;;;;;;;;;5052580;28;20480;-50
2022/08/09 13:16:01;;;;;;;2.40;2.30;;;;;;;;;;5052179;28;20394;-50
2022/08/09 13:18:28;;;;;;;2.70;2.50;;;;;;;;;;5052704;28;20764;-50
2022/08/09 13:20:55;;;;;;;2.30;2.20;;;;;;;;;;5051635;28;20429;-50
2022/08/09 13:23:38;;;;;;;2.70;2.50;;;;;;;;;;5050731;28;20402;-50
2022/08/09 13:26:04;;;;;;;3.67;2.93;;;;;;;;;;5052259;28;20417;-50
2022/08/09 13:28:30;;;;;;;2.40;2.30;;;;;;;;;;5052199;28;20401;-51
2022/08/09 13:31:10;;;;;;;4.30;2.10;;;;;;;;;;5051605;28;20465;-50
2022/08/09 13:33:36;;;;;;;2.10;1.90;;;;;;;;;;5052343;28;20409;-50
2022/08/09 13:36:02;;;;;;;2.73;2.53;;;;;;;;;;5052182;28;20441;-51
2022/08/09 13:38:28;;;;;;;2.50;2.00;;;;;;;;;;5052015;28;20770;-51
2022/08/09 13:41:00;;;;;;;2.63;2.43;;;;;;;;;;5051247;28;20402;-51
2022/08/09 13:43:26;;;;;;;2.80;2.10;;;;;;;;;;5051927;28;20440;-50
2022/08/09 13:45:52;;;;;;;2.40;2.20;;;;;;;;;;5051836;28;20488;-50
2022/08/09 13:48:19;;;;;;;3.00;2.10;;;;;;;;;;5051652;28;20398;-50
2022/08/09 13:50:44;;;;;;;2.47;2.27;;;;;;;;;;5051094;28;21092;-51
2022/08/09 13:53:10;;;;;;;2.23;2.13;;;;;;;;;;5052336;28;20488;-51
2022/08/09 13:55:36;;;;;;;2.30;2.10;;;;;;;;;;5051363;28;20417;-51
2022/08/09 13:58:03;;;;;;;2.10;2.00;;;;;;;;;;5051613;28;20472;-51
2022/08/09 14:00:29;;;;;;;2.80;2.47;;;;;;;;;;5051564;28;20193;-51
2022/08/09 14:02:56;;;;;;;2.47;2.27;;;;;;;;;;5051794;28;20410;-50
2022/08/09 14:05:22;;;;;;;2.47;2.23;;;;;;;;;;5061462;28;20424;-50
2022/08/09 14:07:48;;;;;;;2.70;2.47;;;;;;;;;;5071502;28;20489;-50
2022/08/09 14:10:14;;;;;;;3.83;2.30;;;;;;;;;;5069430;28;20202;-51
2022/08/09 14:12:40;;;;;;;5.43;2.33;;;;;;;;;;5070784;28;20174;-50
2022/08/09 14:15:07;;;;;;;1.90;1.80;;;;;;;;;;5071624;28;20479;-51
2022/08/09 14:17:33;;;;;;;2.70;2.50;;;;;;;;;;5071665;28;20423;-51
2022/08/09 14:20:00;;;;;;;2.73;2.50;;;;;;;;;;5070839;28;20435;-51
2022/08/09 14:22:26;;;;;;;4.60;2.40;;;;;;;;;;5069509;28;20462;-51
2022/08/09 14:24:52;;;;;;;1.90;1.80;;;;;;;;;;5071221;28;20841;-50
2022/08/09 14:27:18;;;;;;;2.07;1.97;;;;;;;;;;5071208;28;20434;-51
2022/08/09 14:29:44;;;;;;;2.50;2.30;;;;;;;;;;5070754;28;20448;-51
2022/08/09 14:32:10;;;;;;;2.40;2.20;;;;;;;;;;5071436;28;20400;-50
2022/08/09 14:34:36;;;;;;;2.40;2.20;;;;;;;;;;5066334;28;20431;-51
2022/08/09 14:37:04;;;;;;;2.80;2.50;;;;;;;;;;5059018;28;20448;-50
2022/08/09 14:39:30;;;;;;;2.63;2.43;;;;;;;;;;5071662;28;20408;-50
2022/08/09 14:41:56;;;;;;;13.93;2.70;;;;;;;;;;5070626;28;20404;-52
2022/08/09 14:44:22;;;;;;;3.57;1.90;;;;;;;;;;5071199;28;20751;-51
2022/08/09 14:46:48;;;;;;;4.67;2.73;;;;;;;;;;5071227;28;20424;-50